Huntsville Municipal Airport
KUTS : rendu visible

Aérodrome :











RETROUVEZ-NOUS SUR...

 
LOGIN :

S'inscrire | Disclaimer

   EN    FR    IT 

 









Légende :    VFR   VFR Marginal   IFR   IFR Intensif   IFR Très Intensif
Visi : 
Plafond : 
>= 8 km
>= 3000ft
5 à 8 km
1000 à 3000 ft
1500m à 5 km
500 à 1000 ft
800 à 1500m
200 à 500 ft
< 800m
< 200 ft
Symboles :   Orages  Brouillard  Fortes neiges  Fortes précipitations  Vent > 20 kt






- Altitude de l'aérodrome : 363 ft


KUTS - Huntsville Municipal

DERNIER METAR :
  • 190353Z AUTO 02006KT 10SM CLR 12/04 A3034 RMK AO2 SLP270 T01170044

METARs EXPIRÉS :
  • 190253Z AUTO 01008G14KT 10SM CLR 13/06 A3031 RMK AO2 SLP261 T01280056 53031
  • 190153Z AUTO 35008G15KT 10SM SCT090 14/07 A3028 RMK AO2 SLP251 T01440067

TAF KUTS
Valide du 19 à 00h jusqu'au 20 à 00h UTC


182324Z 1900/1924 36008KT P6SM BKN080
FM190400 36007KT P6SM SKC



MET'MAP, la Météo Aéronautique d'un coup d'oeil ! - Copyright ORBIFLY Décembre 2007 - Disclaimer

ORBIFLY MET'MAP TEAM :

Programmation & Développement : Alexandra Zaïnal
Sur une idée originale de : Baudouin d'Aumeries
Assistance à la programmation : Marc-Olivier Méhu
Soutien technique & logistique : Manuel Goepfert

Contact : metmap@orbifly.com




SOURCES & CREDITS :

   NOAA       Earth
Advisory